Guarani das Missoes, Brazil
Current Conditions -  °F | °C
As of 6:00 PM on Monday 20 Oct 2014 (Local Time) from SGEN Reporting Station
Clear Clear  
Wind Chill: 82°   Ceiling: Unl
Heat Index: 82°   Visibility: 6mi
Dew Point: 50°   Wind: 7mph
Humidity: 32%   Direction: 130°SE
Pressure: 29.97"   Gusts: NA
Location:  28.14°S, 54.46°W
Report Text: SGEN 202100Z 13006KT CAVOK 28/10 Q1015
Loading
Personal Weather Stations






























Interactive Weather Map
Tropical Storm Tracking
New forecast layout! Learn more

10-Day Weather Forecast

Advertisements
Track Severe Weather on mobile